sensor_id;sensor_type;location;lat;lon;timestamp;P1;durP1;ratioP1;P2;durP2;ratioP2
63801;SDS011;49949;43.060;25.624;2023-07-20T00:00:52;39.50;;;4.88;;
63801;SDS011;49949;43.060;25.624;2023-07-20T00:03:18;22.40;;;4.05;;
63801;SDS011;49949;43.060;25.624;2023-07-20T00:05:48;18.60;;;3.40;;
63801;SDS011;49949;43.060;25.624;2023-07-20T00:08:14;26.08;;;4.55;;
63801;SDS011;49949;43.060;25.624;2023-07-20T00:10:40;19.75;;;3.53;;
63801;SDS011;49949;43.060;25.624;2023-07-20T00:13:06;8.73;;;2.30;;
63801;SDS011;49949;43.060;25.624;2023-07-20T00:15:32;19.20;;;3.50;;
63801;SDS011;49949;43.060;25.624;2023-07-20T00:17:58;25.10;;;3.70;;
63801;SDS011;49949;43.060;25.624;2023-07-20T00:20:24;24.13;;;3.35;;
63801;SDS011;49949;43.060;25.624;2023-07-20T00:22:50;26.27;;;5.68;;
63801;SDS011;49949;43.060;25.624;2023-07-20T00:25:17;28.85;;;4.60;;
63801;SDS011;49949;43.060;25.624;2023-07-20T00:27:43;5.72;;;2.40;;
63801;SDS011;49949;43.060;25.624;2023-07-20T00:30:09;17.95;;;2.78;;
63801;SDS011;49949;43.060;25.624;2023-07-20T00:32:35;15.63;;;2.50;;
63801;SDS011;49949;43.060;25.624;2023-07-20T00:35:01;15.73;;;4.15;;
63801;SDS011;49949;43.060;25.624;2023-07-20T00:37:26;13.80;;;2.55;;
63801;SDS011;49949;43.060;25.624;2023-07-20T00:39:53;9.25;;;2.10;;
63801;SDS011;49949;43.060;25.624;2023-07-20T00:42:18;13.15;;;2.10;;
63801;SDS011;49949;43.060;25.624;2023-07-20T00:44:44;17.55;;;2.35;;
63801;SDS011;49949;43.060;25.624;2023-07-20T00:47:10;9.23;;;2.05;;
63801;SDS011;49949;43.060;25.624;2023-07-20T00:49:36;12.93;;;2.30;;
63801;SDS011;49949;43.060;25.624;2023-07-20T00:52:02;7.13;;;2.33;;
63801;SDS011;49949;43.060;25.624;2023-07-20T00:54:31;19.85;;;2.50;;
63801;SDS011;49949;43.060;25.624;2023-07-20T00:56:57;9.57;;;2.50;;
63801;SDS011;49949;43.060;25.624;2023-07-20T00:59:24;13.52;;;2.40;;
63801;SDS011;49949;43.060;25.624;2023-07-20T01:01:50;10.68;;;2.40;;
63801;SDS011;49949;43.060;25.624;2023-07-20T01:04:16;13.38;;;3.05;;
63801;SDS011;49949;43.060;25.624;2023-07-20T01:06:49;13.07;;;2.72;;
63801;SDS011;49949;43.060;25.624;2023-07-20T01:09:31;13.18;;;2.80;;
63801;SDS011;49949;43.060;25.624;2023-07-20T01:12:08;9.82;;;2.30;;
63801;SDS011;49949;43.060;25.624;2023-07-20T01:14:38;15.02;;;2.30;;
63801;SDS011;49949;43.060;25.624;2023-07-20T01:17:05;12.02;;;2.63;;
63801;SDS011;49949;43.060;25.624;2023-07-20T01:19:30;15.73;;;3.10;;
63801;SDS011;49949;43.060;25.624;2023-07-20T01:21:57;10.93;;;2.20;;
63801;SDS011;49949;43.060;25.624;2023-07-20T01:33:11;11.48;;;2.42;;
63801;SDS011;49949;43.060;25.624;2023-07-20T01:35:39;9.57;;;2.45;;
63801;SDS011;49949;43.060;25.624;2023-07-20T01:38:09;11.98;;;3.42;;
63801;SDS011;49949;43.060;25.624;2023-07-20T01:40:36;13.60;;;4.10;;
63801;SDS011;49949;43.060;25.624;2023-07-20T01:43:03;14.05;;;3.03;;
63801;SDS011;49949;43.060;25.624;2023-07-20T01:45:29;13.50;;;2.78;;
63801;SDS011;49949;43.060;25.624;2023-07-20T01:47:54;17.95;;;3.00;;
63801;SDS011;49949;43.060;25.624;2023-07-20T01:50:20;15.63;;;3.20;;
63801;SDS011;49949;43.060;25.624;2023-07-20T01:52:46;12.77;;;3.95;;
63801;SDS011;49949;43.060;25.624;2023-07-20T01:55:11;21.25;;;5.18;;
63801;SDS011;49949;43.060;25.624;2023-07-20T01:57:37;12.20;;;4.25;;
63801;SDS011;49949;43.060;25.624;2023-07-20T02:00:03;10.32;;;3.83;;
63801;SDS011;49949;43.060;25.624;2023-07-20T02:02:33;14.30;;;4.70;;
63801;SDS011;49949;43.060;25.624;2023-07-20T02:04:59;9.82;;;3.95;;
63801;SDS011;49949;43.060;25.624;2023-07-20T02:07:25;9.95;;;3.85;;
63801;SDS011;49949;43.060;25.624;2023-07-20T02:09:51;12.75;;;3.78;;
63801;SDS011;49949;43.060;25.624;2023-07-20T02:12:17;9.95;;;3.47;;
63801;SDS011;49949;43.060;25.624;2023-07-20T02:14:42;17.13;;;3.92;;
63801;SDS011;49949;43.060;25.624;2023-07-20T02:17:08;12.23;;;3.85;;
63801;SDS011;49949;43.060;25.624;2023-07-20T02:19:35;11.57;;;3.50;;
63801;SDS011;49949;43.060;25.624;2023-07-20T02:22:01;14.43;;;4.05;;
63801;SDS011;49949;43.060;25.624;2023-07-20T02:24:27;22.92;;;5.20;;
63801;SDS011;49949;43.060;25.624;2023-07-20T02:26:53;12.20;;;3.63;;
63801;SDS011;49949;43.060;25.624;2023-07-20T02:29:18;16.20;;;3.67;;
63801;SDS011;49949;43.060;25.624;2023-07-20T02:31:44;8.55;;;3.33;;
63801;SDS011;49949;43.060;25.624;2023-07-20T02:34:10;16.83;;;3.38;;
63801;SDS011;49949;43.060;25.624;2023-07-20T02:36:35;14.52;;;4.82;;
63801;SDS011;49949;43.060;25.624;2023-07-20T02:39:01;12.73;;;3.83;;
63801;SDS011;49949;43.060;25.624;2023-07-20T02:41:29;11.93;;;3.80;;
63801;SDS011;49949;43.060;25.624;2023-07-20T02:43:55;11.25;;;3.92;;
63801;SDS011;49949;43.060;25.624;2023-07-20T02:46:21;13.63;;;4.10;;
63801;SDS011;49949;43.060;25.624;2023-07-20T02:48:47;8.73;;;4.05;;
63801;SDS011;49949;43.060;25.624;2023-07-20T02:51:13;17.85;;;3.92;;
63801;SDS011;49949;43.060;25.624;2023-07-20T02:53:38;15.38;;;3.97;;
63801;SDS011;49949;43.060;25.624;2023-07-20T02:56:04;11.35;;;4.60;;
63801;SDS011;49949;43.060;25.624;2023-07-20T02:58:30;22.23;;;6.30;;
63801;SDS011;49949;43.060;25.624;2023-07-20T03:00:56;13.90;;;5.38;;
63801;SDS011;49949;43.060;25.624;2023-07-20T03:03:21;37.28;;;10.23;;
63801;SDS011;49949;43.060;25.624;2023-07-20T03:05:47;22.52;;;7.95;;
63801;SDS011;49949;43.060;25.624;2023-07-20T03:08:19;19.40;;;5.82;;
63801;SDS011;49949;43.060;25.624;2023-07-20T03:10:45;37.97;;;7.88;;
63801;SDS011;49949;43.060;25.624;2023-07-20T03:13:11;34.92;;;7.97;;
63801;SDS011;49949;43.060;25.624;2023-07-20T03:15:37;23.05;;;9.15;;
63801;SDS011;49949;43.060;25.624;2023-07-20T03:18:03;25.17;;;7.65;;
63801;SDS011;49949;43.060;25.624;2023-07-20T03:20:29;51.90;;;24.83;;
63801;SDS011;49949;43.060;25.624;2023-07-20T03:22:56;26.80;;;11.30;;
63801;SDS011;49949;43.060;25.624;2023-07-20T03:25:22;40.70;;;12.55;;
63801;SDS011;49949;43.060;25.624;2023-07-20T03:27:48;43.03;;;8.60;;
63801;SDS011;49949;43.060;25.624;2023-07-20T03:30:14;25.88;;;7.85;;
63801;SDS011;49949;43.060;25.624;2023-07-20T03:32:39;21.38;;;5.18;;
63801;SDS011;49949;43.060;25.624;2023-07-20T03:35:05;17.88;;;6.05;;
63801;SDS011;49949;43.060;25.624;2023-07-20T03:37:31;14.35;;;5.05;;
63801;SDS011;49949;43.060;25.624;2023-07-20T03:39:59;9.75;;;4.95;;
63801;SDS011;49949;43.060;25.624;2023-07-20T03:42:25;23.98;;;7.78;;
63801;SDS011;49949;43.060;25.624;2023-07-20T03:44:51;25.33;;;7.70;;
63801;SDS011;49949;43.060;25.624;2023-07-20T03:47:16;31.55;;;8.27;;
63801;SDS011;49949;43.060;25.624;2023-07-20T03:49:42;25.58;;;12.13;;
63801;SDS011;49949;43.060;25.624;2023-07-20T03:52:08;23.77;;;11.25;;
63801;SDS011;49949;43.060;25.624;2023-07-20T03:54:34;29.55;;;14.55;;
63801;SDS011;49949;43.060;25.624;2023-07-20T03:56:59;29.90;;;19.05;;
63801;SDS011;49949;43.060;25.624;2023-07-20T03:59:26;30.80;;;16.30;;
63801;SDS011;49949;43.060;25.624;2023-07-20T04:01:51;26.67;;;15.07;;
63801;SDS011;49949;43.060;25.624;2023-07-20T04:04:17;41.03;;;12.15;;
63801;SDS011;49949;43.060;25.624;2023-07-20T04:06:43;27.58;;;8.68;;
63801;SDS011;49949;43.060;25.624;2023-07-20T04:09:11;20.80;;;8.40;;
63801;SDS011;49949;43.060;25.624;2023-07-20T04:11:37;21.17;;;10.38;;
63801;SDS011;49949;43.060;25.624;2023-07-20T04:14:03;24.63;;;10.15;;
63801;SDS011;49949;43.060;25.624;2023-07-20T04:16:29;19.55;;;8.77;;
63801;SDS011;49949;43.060;25.624;2023-07-20T04:18:55;26.08;;;7.13;;
63801;SDS011;49949;43.060;25.624;2023-07-20T04:21:21;37.50;;;6.20;;
63801;SDS011;49949;43.060;25.624;2023-07-20T04:23:47;25.30;;;7.10;;
63801;SDS011;49949;43.060;25.624;2023-07-20T04:26:13;13.73;;;6.15;;
63801;SDS011;49949;43.060;25.624;2023-07-20T04:28:40;14.60;;;5.00;;
63801;SDS011;49949;43.060;25.624;2023-07-20T04:31:11;15.82;;;5.47;;
63801;SDS011;49949;43.060;25.624;2023-07-20T04:33:38;12.00;;;3.60;;
63801;SDS011;49949;43.060;25.624;2023-07-20T04:36:04;13.68;;;4.85;;
63801;SDS011;49949;43.060;25.624;2023-07-20T04:38:30;8.23;;;3.13;;
63801;SDS011;49949;43.060;25.624;2023-07-20T04:40:55;12.90;;;3.20;;
63801;SDS011;49949;43.060;25.624;2023-07-20T04:43:21;18.33;;;3.30;;
63801;SDS011;49949;43.060;25.624;2023-07-20T04:45:47;16.67;;;4.05;;
63801;SDS011;49949;43.060;25.624;2023-07-20T04:48:13;21.73;;;3.78;;
63801;SDS011;49949;43.060;25.624;2023-07-20T04:50:42;11.70;;;3.28;;
63801;SDS011;49949;43.060;25.624;2023-07-20T04:53:09;15.75;;;3.42;;
63801;SDS011;49949;43.060;25.624;2023-07-20T04:55:36;22.73;;;4.50;;
63801;SDS011;49949;43.060;25.624;2023-07-20T04:58:02;22.48;;;3.78;;
63801;SDS011;49949;43.060;25.624;2023-07-20T05:00:29;4.60;;;2.65;;
63801;SDS011;49949;43.060;25.624;2023-07-20T05:02:55;9.35;;;2.70;;
63801;SDS011;49949;43.060;25.624;2023-07-20T05:05:21;7.25;;;2.50;;
63801;SDS011;49949;43.060;25.624;2023-07-20T05:07:47;19.40;;;4.07;;
63801;SDS011;49949;43.060;25.624;2023-07-20T05:10:13;9.98;;;3.15;;
63801;SDS011;49949;43.060;25.624;2023-07-20T05:12:38;14.45;;;2.78;;
63801;SDS011;49949;43.060;25.624;2023-07-20T05:15:04;14.13;;;2.65;;
63801;SDS011;49949;43.060;25.624;2023-07-20T05:17:30;8.70;;;2.22;;
63801;SDS011;49949;43.060;25.624;2023-07-20T05:19:56;9.95;;;2.53;;
63801;SDS011;49949;43.060;25.624;2023-07-20T05:22:21;7.82;;;2.17;;
63801;SDS011;49949;43.060;25.624;2023-07-20T05:24:49;14.00;;;3.13;;
63801;SDS011;49949;43.060;25.624;2023-07-20T05:27:15;14.32;;;2.67;;
63801;SDS011;49949;43.060;25.624;2023-07-20T05:29:44;7.03;;;1.98;;
63801;SDS011;49949;43.060;25.624;2023-07-20T05:32:10;11.10;;;2.75;;
63801;SDS011;49949;43.060;25.624;2023-07-20T05:34:36;13.05;;;2.90;;
63801;SDS011;49949;43.060;25.624;2023-07-20T05:37:02;9.30;;;2.50;;
63801;SDS011;49949;43.060;25.624;2023-07-20T05:39:28;11.88;;;2.40;;
63801;SDS011;49949;43.060;25.624;2023-07-20T05:41:53;14.48;;;2.85;;
63801;SDS011;49949;43.060;25.624;2023-07-20T05:44:19;11.98;;;2.40;;
63801;SDS011;49949;43.060;25.624;2023-07-20T05:46:45;7.13;;;2.33;;
63801;SDS011;49949;43.060;25.624;2023-07-20T05:49:10;13.40;;;2.90;;
63801;SDS011;49949;43.060;25.624;2023-07-20T05:51:36;7.10;;;2.58;;
63801;SDS011;49949;43.060;25.624;2023-07-20T05:54:02;11.07;;;2.30;;
63801;SDS011;49949;43.060;25.624;2023-07-20T05:56:28;6.88;;;2.35;;
63801;SDS011;49949;43.060;25.624;2023-07-20T05:58:53;13.52;;;2.70;;
63801;SDS011;49949;43.060;25.624;2023-07-20T06:01:19;11.55;;;2.80;;
63801;SDS011;49949;43.060;25.624;2023-07-20T06:03:44;11.15;;;3.85;;
63801;SDS011;49949;43.060;25.624;2023-07-20T06:06:10;11.95;;;3.83;;
63801;SDS011;49949;43.060;25.624;2023-07-20T06:08:37;17.58;;;3.50;;
63801;SDS011;49949;43.060;25.624;2023-07-20T06:11:03;11.70;;;3.35;;
63801;SDS011;49949;43.060;25.624;2023-07-20T06:13:29;17.20;;;3.25;;
63801;SDS011;49949;43.060;25.624;2023-07-20T06:15:55;6.53;;;2.42;;
63801;SDS011;49949;43.060;25.624;2023-07-20T06:18:22;12.90;;;4.32;;
63801;SDS011;49949;43.060;25.624;2023-07-20T06:20:51;48.53;;;4.88;;
63801;SDS011;49949;43.060;25.624;2023-07-20T06:23:18;12.38;;;2.92;;
63801;SDS011;49949;43.060;25.624;2023-07-20T06:25:44;15.48;;;3.85;;
63801;SDS011;49949;43.060;25.624;2023-07-20T06:28:10;19.42;;;3.72;;
63801;SDS011;49949;43.060;25.624;2023-07-20T06:30:36;17.60;;;3.50;;
63801;SDS011;49949;43.060;25.624;2023-07-20T06:33:02;10.57;;;3.28;;
63801;SDS011;49949;43.060;25.624;2023-07-20T06:35:27;12.25;;;3.45;;
63801;SDS011;49949;43.060;25.624;2023-07-20T06:37:53;15.45;;;4.28;;
63801;SDS011;49949;43.060;25.624;2023-07-20T06:40:19;20.13;;;3.75;;
63801;SDS011;49949;43.060;25.624;2023-07-20T06:42:45;14.20;;;3.63;;
63801;SDS011;49949;43.060;25.624;2023-07-20T06:45:11;15.98;;;3.58;;
63801;SDS011;49949;43.060;25.624;2023-07-20T06:47:40;11.85;;;3.75;;
63801;SDS011;49949;43.060;25.624;2023-07-20T06:50:06;18.20;;;3.95;;
63801;SDS011;49949;43.060;25.624;2023-07-20T06:52:32;23.00;;;4.13;;
63801;SDS011;49949;43.060;25.624;2023-07-20T06:54:58;9.88;;;3.83;;
63801;SDS011;49949;43.060;25.624;2023-07-20T06:57:24;15.88;;;3.70;;
63801;SDS011;49949;43.060;25.624;2023-07-20T06:59:50;53.50;;;6.18;;
63801;SDS011;49949;43.060;25.624;2023-07-20T07:02:16;13.05;;;3.65;;
63801;SDS011;49949;43.060;25.624;2023-07-20T07:04:42;11.98;;;2.90;;
63801;SDS011;49949;43.060;25.624;2023-07-20T07:07:08;13.63;;;2.85;;
63801;SDS011;49949;43.060;25.624;2023-07-20T07:09:34;32.20;;;4.43;;
63801;SDS011;49949;43.060;25.624;2023-07-20T07:12:00;18.88;;;4.70;;
63801;SDS011;49949;43.060;25.624;2023-07-20T07:14:26;15.95;;;3.13;;
63801;SDS011;49949;43.060;25.624;2023-07-20T07:16:52;203.43;;;15.10;;
63801;SDS011;49949;43.060;25.624;2023-07-20T07:19:17;10.38;;;1.85;;
63801;SDS011;49949;43.060;25.624;2023-07-20T07:21:43;5.32;;;1.48;;
63801;SDS011;49949;43.060;25.624;2023-07-20T07:24:09;5.97;;;1.45;;
63801;SDS011;49949;43.060;25.624;2023-07-20T07:26:36;8.10;;;2.08;;
63801;SDS011;49949;43.060;25.624;2023-07-20T07:29:02;2.10;;;1.20;;
63801;SDS011;49949;43.060;25.624;2023-07-20T07:31:29;6.15;;;1.45;;
63801;SDS011;49949;43.060;25.624;2023-07-20T07:33:55;10.48;;;2.08;;
63801;SDS011;49949;43.060;25.624;2023-07-20T07:36:21;19.42;;;3.22;;
63801;SDS011;49949;43.060;25.624;2023-07-20T07:38:49;26.02;;;3.25;;
63801;SDS011;49949;43.060;25.624;2023-07-20T07:41:15;9.07;;;2.10;;
63801;SDS011;49949;43.060;25.624;2023-07-20T07:43:41;5.22;;;1.55;;
63801;SDS011;49949;43.060;25.624;2023-07-20T07:46:07;12.63;;;3.13;;
63801;SDS011;49949;43.060;25.624;2023-07-20T07:48:33;15.70;;;2.08;;
63801;SDS011;49949;43.060;25.624;2023-07-20T07:50:59;29.08;;;3.00;;
63801;SDS011;49949;43.060;25.624;2023-07-20T07:53:24;12.77;;;2.58;;
63801;SDS011;49949;43.060;25.624;2023-07-20T07:55:51;27.67;;;2.50;;
63801;SDS011;49949;43.060;25.624;2023-07-20T07:58:17;14.55;;;2.65;;
63801;SDS011;49949;43.060;25.624;2023-07-20T08:00:43;9.55;;;2.45;;
63801;SDS011;49949;43.060;25.624;2023-07-20T08:03:09;6.97;;;1.98;;
63801;SDS011;49949;43.060;25.624;2023-07-20T08:05:35;10.35;;;2.13;;
63801;SDS011;49949;43.060;25.624;2023-07-20T08:08:04;25.65;;;3.10;;
63801;SDS011;49949;43.060;25.624;2023-07-20T08:10:30;3.97;;;1.60;;
63801;SDS011;49949;43.060;25.624;2023-07-20T08:12:56;11.68;;;2.65;;
63801;SDS011;49949;43.060;25.624;2023-07-20T08:15:22;13.68;;;2.45;;
63801;SDS011;49949;43.060;25.624;2023-07-20T08:17:48;20.17;;;3.10;;
63801;SDS011;49949;43.060;25.624;2023-07-20T08:20:16;3.00;;;1.95;;
63801;SDS011;49949;43.060;25.624;2023-07-20T08:22:43;11.55;;;2.10;;
63801;SDS011;49949;43.060;25.624;2023-07-20T08:25:09;2.63;;;1.50;;
63801;SDS011;49949;43.060;25.624;2023-07-20T08:27:35;7.85;;;2.17;;
63801;SDS011;49949;43.060;25.624;2023-07-20T08:30:02;10.85;;;2.25;;
63801;SDS011;49949;43.060;25.624;2023-07-20T08:32:29;4.50;;;1.38;;
63801;SDS011;49949;43.060;25.624;2023-07-20T08:34:55;4.78;;;1.92;;
63801;SDS011;49949;43.060;25.624;2023-07-20T08:37:20;11.23;;;2.28;;
63801;SDS011;49949;43.060;25.624;2023-07-20T08:39:47;9.25;;;1.70;;
63801;SDS011;49949;43.060;25.624;2023-07-20T08:42:12;6.32;;;1.90;;
63801;SDS011;49949;43.060;25.624;2023-07-20T08:44:40;4.68;;;1.65;;
63801;SDS011;49949;43.060;25.624;2023-07-20T08:47:07;6.82;;;1.30;;
63801;SDS011;49949;43.060;25.624;2023-07-20T08:49:35;3.78;;;1.50;;
63801;SDS011;49949;43.060;25.624;2023-07-20T08:52:04;6.75;;;1.85;;
63801;SDS011;49949;43.060;25.624;2023-07-20T08:54:30;15.02;;;2.35;;
63801;SDS011;49949;43.060;25.624;2023-07-20T08:57:02;5.70;;;1.67;;
63801;SDS011;49949;43.060;25.624;2023-07-20T08:59:29;21.33;;;1.98;;
63801;SDS011;49949;43.060;25.624;2023-07-20T09:01:59;14.48;;;1.90;;
63801;SDS011;49949;43.060;25.624;2023-07-20T09:04:26;9.10;;;1.65;;
63801;SDS011;49949;43.060;25.624;2023-07-20T09:06:51;3.28;;;1.20;;
63801;SDS011;49949;43.060;25.624;2023-07-20T09:09:17;7.13;;;1.48;;
63801;SDS011;49949;43.060;25.624;2023-07-20T09:11:44;3.45;;;1.33;;
63801;SDS011;49949;43.060;25.624;2023-07-20T09:14:13;6.10;;;1.58;;
63801;SDS011;49949;43.060;25.624;2023-07-20T09:16:55;7.78;;;2.03;;
63801;SDS011;49949;43.060;25.624;2023-07-20T09:24:57;10.48;;;2.13;;
63801;SDS011;49949;43.060;25.624;2023-07-20T09:27:38;2.72;;;1.60;;
63801;SDS011;49949;43.060;25.624;2023-07-20T09:30:05;6.72;;;1.55;;
63801;SDS011;49949;43.060;25.624;2023-07-20T09:32:37;5.65;;;1.50;;
63801;SDS011;49949;43.060;25.624;2023-07-20T09:35:16;4.78;;;1.55;;
63801;SDS011;49949;43.060;25.624;2023-07-20T09:37:50;15.10;;;2.13;;
63801;SDS011;49949;43.060;25.624;2023-07-20T09:40:19;5.47;;;1.90;;
63801;SDS011;49949;43.060;25.624;2023-07-20T09:42:46;4.47;;;2.00;;
63801;SDS011;49949;43.060;25.624;2023-07-20T09:45:12;6.28;;;1.52;;
63801;SDS011;49949;43.060;25.624;2023-07-20T09:47:38;4.45;;;1.77;;
63801;SDS011;49949;43.060;25.624;2023-07-20T09:50:05;8.38;;;1.67;;
63801;SDS011;49949;43.060;25.624;2023-07-20T09:52:38;6.32;;;1.70;;
63801;SDS011;49949;43.060;25.624;2023-07-20T09:55:06;7.20;;;1.80;;
63801;SDS011;49949;43.060;25.624;2023-07-20T09:57:33;6.80;;;2.13;;
63801;SDS011;49949;43.060;25.624;2023-07-20T10:00:01;5.20;;;1.88;;
63801;SDS011;49949;43.060;25.624;2023-07-20T10:04:59;4.70;;;2.03;;
63801;SDS011;49949;43.060;25.624;2023-07-20T10:07:29;4.85;;;1.75;;
63801;SDS011;49949;43.060;25.624;2023-07-20T10:09:56;2.80;;;1.50;;
63801;SDS011;49949;43.060;25.624;2023-07-20T10:12:26;4.47;;;1.98;;
63801;SDS011;49949;43.060;25.624;2023-07-20T10:14:54;7.65;;;2.13;;
63801;SDS011;49949;43.060;25.624;2023-07-20T10:17:37;7.47;;;1.80;;
63801;SDS011;49949;43.060;25.624;2023-07-20T10:20:19;3.90;;;2.00;;
63801;SDS011;49949;43.060;25.624;2023-07-20T10:22:46;8.63;;;2.55;;
63801;SDS011;49949;43.060;25.624;2023-07-20T10:25:15;12.95;;;2.60;;
63801;SDS011;49949;43.060;25.624;2023-07-20T10:27:41;5.43;;;2.33;;
63801;SDS011;49949;43.060;25.624;2023-07-20T10:30:08;13.27;;;3.80;;
63801;SDS011;49949;43.060;25.624;2023-07-20T10:32:34;20.63;;;5.00;;
63801;SDS011;49949;43.060;25.624;2023-07-20T10:35:00;8.65;;;2.03;;
63801;SDS011;49949;43.060;25.624;2023-07-20T10:40:24;9.02;;;2.33;;
63801;SDS011;49949;43.060;25.624;2023-07-20T10:42:50;10.50;;;2.50;;
63801;SDS011;49949;43.060;25.624;2023-07-20T10:45:17;26.98;;;7.05;;
63801;SDS011;49949;43.060;25.624;2023-07-20T10:47:46;4.05;;;1.90;;
63801;SDS011;49949;43.060;25.624;2023-07-20T10:50:12;5.50;;;2.22;;
63801;SDS011;49949;43.060;25.624;2023-07-20T10:52:39;5.93;;;2.03;;
63801;SDS011;49949;43.060;25.624;2023-07-20T10:55:15;6.95;;;2.53;;
63801;SDS011;49949;43.060;25.624;2023-07-20T10:57:41;8.02;;;2.90;;
63801;SDS011;49949;43.060;25.624;2023-07-20T11:00:07;3.25;;;2.05;;
63801;SDS011;49949;43.060;25.624;2023-07-20T11:02:46;15.93;;;2.70;;
63801;SDS011;49949;43.060;25.624;2023-07-20T11:05:34;8.77;;;2.42;;
63801;SDS011;49949;43.060;25.624;2023-07-20T11:08:06;25.23;;;6.18;;
63801;SDS011;49949;43.060;25.624;2023-07-20T11:10:35;8.18;;;2.47;;
63801;SDS011;49949;43.060;25.624;2023-07-20T11:15:46;13.23;;;3.35;;
63801;SDS011;49949;43.060;25.624;2023-07-20T11:18:12;30.77;;;3.63;;
63801;SDS011;49949;43.060;25.624;2023-07-20T11:20:38;9.65;;;2.47;;
63801;SDS011;49949;43.060;25.624;2023-07-20T11:23:05;6.35;;;1.90;;
63801;SDS011;49949;43.060;25.624;2023-07-20T11:25:38;7.75;;;2.30;;
63801;SDS011;49949;43.060;25.624;2023-07-20T11:28:08;9.30;;;2.20;;
63801;SDS011;49949;43.060;25.624;2023-07-20T11:30:35;16.63;;;2.92;;
63801;SDS011;49949;43.060;25.624;2023-07-20T11:33:02;9.30;;;2.30;;
63801;SDS011;49949;43.060;25.624;2023-07-20T11:35:28;2.30;;;1.95;;
63801;SDS011;49949;43.060;25.624;2023-07-20T11:37:54;13.32;;;2.40;;
63801;SDS011;49949;43.060;25.624;2023-07-20T11:40:21;9.15;;;2.42;;
63801;SDS011;49949;43.060;25.624;2023-07-20T11:42:48;6.13;;;2.03;;
63801;SDS011;49949;43.060;25.624;2023-07-20T11:45:16;6.75;;;2.22;;
63801;SDS011;49949;43.060;25.624;2023-07-20T11:47:43;7.15;;;2.33;;
63801;SDS011;49949;43.060;25.624;2023-07-20T11:50:09;3.65;;;2.03;;
63801;SDS011;49949;43.060;25.624;2023-07-20T11:52:36;9.88;;;2.30;;
63801;SDS011;49949;43.060;25.624;2023-07-20T11:55:02;9.95;;;2.78;;
63801;SDS011;49949;43.060;25.624;2023-07-20T11:57:29;15.48;;;2.97;;
63801;SDS011;49949;43.060;25.624;2023-07-20T11:59:58;10.43;;;3.05;;
63801;SDS011;49949;43.060;25.624;2023-07-20T12:02:30;5.13;;;1.90;;
63801;SDS011;49949;43.060;25.624;2023-07-20T12:04:57;4.03;;;2.10;;
63801;SDS011;49949;43.060;25.624;2023-07-20T12:07:23;12.43;;;2.15;;
63801;SDS011;49949;43.060;25.624;2023-07-20T12:10:10;9.20;;;2.50;;
63801;SDS011;49949;43.060;25.624;2023-07-20T12:12:40;14.70;;;2.10;;
63801;SDS011;49949;43.060;25.624;2023-07-20T12:17:45;6.00;;;1.80;;
63801;SDS011;49949;43.060;25.624;2023-07-20T12:20:24;8.45;;;2.10;;
63801;SDS011;49949;43.060;25.624;2023-07-20T12:23:15;26.73;;;2.70;;
63801;SDS011;49949;43.060;25.624;2023-07-20T12:25:42;14.77;;;2.15;;
63801;SDS011;49949;43.060;25.624;2023-07-20T12:28:10;5.38;;;2.08;;
63801;SDS011;49949;43.060;25.624;2023-07-20T12:30:39;12.32;;;2.30;;
63801;SDS011;49949;43.060;25.624;2023-07-20T12:33:05;8.57;;;1.90;;
63801;SDS011;49949;43.060;25.624;2023-07-20T12:35:31;5.13;;;1.60;;
63801;SDS011;49949;43.060;25.624;2023-07-20T12:37:57;5.60;;;1.60;;
63801;SDS011;49949;43.060;25.624;2023-07-20T12:40:23;69.05;;;5.18;;
63801;SDS011;49949;43.060;25.624;2023-07-20T12:42:49;6.50;;;1.70;;
63801;SDS011;49949;43.060;25.624;2023-07-20T12:45:15;10.68;;;1.85;;
63801;SDS011;49949;43.060;25.624;2023-07-20T12:47:41;15.73;;;2.33;;
63801;SDS011;49949;43.060;25.624;2023-07-20T12:50:08;5.28;;;1.50;;
63801;SDS011;49949;43.060;25.624;2023-07-20T12:52:38;11.60;;;1.73;;
63801;SDS011;49949;43.060;25.624;2023-07-20T12:55:08;7.28;;;2.15;;
63801;SDS011;49949;43.060;25.624;2023-07-20T12:57:35;14.95;;;2.03;;
63801;SDS011;49949;43.060;25.624;2023-07-20T13:00:05;21.42;;;1.92;;
63801;SDS011;49949;43.060;25.624;2023-07-20T13:02:35;5.57;;;1.75;;
63801;SDS011;49949;43.060;25.624;2023-07-20T13:05:01;14.98;;;2.30;;
63801;SDS011;49949;43.060;25.624;2023-07-20T13:07:31;5.95;;;1.75;;
63801;SDS011;49949;43.060;25.624;2023-07-20T13:09:59;14.48;;;2.47;;
63801;SDS011;49949;43.060;25.624;2023-07-20T13:12:26;12.07;;;1.60;;
63801;SDS011;49949;43.060;25.624;2023-07-20T13:14:52;25.15;;;2.95;;
63801;SDS011;49949;43.060;25.624;2023-07-20T13:17:19;17.67;;;1.52;;
63801;SDS011;49949;43.060;25.624;2023-07-20T13:19:44;7.50;;;1.35;;
63801;SDS011;49949;43.060;25.624;2023-07-20T13:22:10;2.63;;;1.50;;
63801;SDS011;49949;43.060;25.624;2023-07-20T13:24:36;3.83;;;1.50;;
63801;SDS011;49949;43.060;25.624;2023-07-20T13:27:02;2.90;;;1.50;;
63801;SDS011;49949;43.060;25.624;2023-07-20T13:29:28;3.42;;;1.42;;
63801;SDS011;49949;43.060;25.624;2023-07-20T13:31:53;8.05;;;1.88;;
63801;SDS011;49949;43.060;25.624;2023-07-20T13:34:19;15.20;;;1.67;;
63801;SDS011;49949;43.060;25.624;2023-07-20T13:36:45;5.18;;;1.67;;
63801;SDS011;49949;43.060;25.624;2023-07-20T13:39:10;7.53;;;1.90;;
63801;SDS011;49949;43.060;25.624;2023-07-20T13:41:36;13.50;;;1.85;;
63801;SDS011;49949;43.060;25.624;2023-07-20T13:44:02;3.95;;;1.58;;
63801;SDS011;49949;43.060;25.624;2023-07-20T13:46:28;27.05;;;2.80;;
63801;SDS011;49949;43.060;25.624;2023-07-20T13:48:53;7.35;;;1.27;;
63801;SDS011;49949;43.060;25.624;2023-07-20T13:51:19;5.15;;;1.38;;
63801;SDS011;49949;43.060;25.624;2023-07-20T13:53:45;6.13;;;1.40;;
63801;SDS011;49949;43.060;25.624;2023-07-20T13:56:12;3.42;;;1.10;;
63801;SDS011;49949;43.060;25.624;2023-07-20T13:58:38;13.98;;;1.50;;
63801;SDS011;49949;43.060;25.624;2023-07-20T14:01:03;4.18;;;1.40;;
63801;SDS011;49949;43.060;25.624;2023-07-20T14:03:29;10.57;;;2.03;;
63801;SDS011;49949;43.060;25.624;2023-07-20T14:05:55;5.25;;;1.38;;
63801;SDS011;49949;43.060;25.624;2023-07-20T14:08:21;10.85;;;1.60;;
63801;SDS011;49949;43.060;25.624;2023-07-20T14:10:47;5.88;;;1.15;;
63801;SDS011;49949;43.060;25.624;2023-07-20T14:13:13;5.47;;;1.55;;
63801;SDS011;49949;43.060;25.624;2023-07-20T14:15:39;5.57;;;1.55;;
63801;SDS011;49949;43.060;25.624;2023-07-20T14:18:05;15.82;;;1.73;;
63801;SDS011;49949;43.060;25.624;2023-07-20T14:20:31;4.10;;;1.70;;
63801;SDS011;49949;43.060;25.624;2023-07-20T14:22:57;7.35;;;1.58;;
63801;SDS011;49949;43.060;25.624;2023-07-20T14:25:22;1.52;;;1.17;;
63801;SDS011;49949;43.060;25.624;2023-07-20T14:27:49;3.47;;;1.40;;
63801;SDS011;49949;43.060;25.624;2023-07-20T14:30:14;5.50;;;1.25;;
63801;SDS011;49949;43.060;25.624;2023-07-20T14:32:40;14.35;;;2.40;;
63801;SDS011;49949;43.060;25.624;2023-07-20T14:35:06;13.75;;;1.67;;
63801;SDS011;49949;43.060;25.624;2023-07-20T14:37:32;7.68;;;1.50;;
63801;SDS011;49949;43.060;25.624;2023-07-20T14:39:59;1.65;;;1.30;;
63801;SDS011;49949;43.060;25.624;2023-07-20T14:42:24;4.90;;;1.52;;
63801;SDS011;49949;43.060;25.624;2023-07-20T14:44:50;6.20;;;1.45;;
63801;SDS011;49949;43.060;25.624;2023-07-20T14:47:16;3.88;;;1.50;;
63801;SDS011;49949;43.060;25.624;2023-07-20T14:49:42;2.20;;;1.55;;